createdAt,value
2023-05-20T00:03:55.985Z,15.86
2023-05-20T00:08:59.865Z,15.69
2023-05-20T00:14:02.956Z,15.57
2023-05-20T00:19:04.887Z,15.45
2023-05-20T00:24:07.140Z,15.37
2023-05-20T00:29:09.037Z,15.32
2023-05-20T00:34:11.042Z,15.30
2023-05-20T00:39:12.920Z,15.30
2023-05-20T00:44:14.770Z,15.35
2023-05-20T00:49:17.666Z,15.52
2023-05-20T00:54:19.830Z,15.66
2023-05-20T00:59:22.004Z,15.65
2023-05-20T01:04:24.595Z,15.54
2023-05-20T01:09:26.804Z,15.21
2023-05-20T01:14:33.165Z,15.08
2023-05-20T01:19:48.779Z,15.05
2023-05-20T01:24:53.670Z,15.00
2023-05-20T01:29:55.898Z,14.95
2023-05-20T01:34:59.517Z,14.95
2023-05-20T01:40:01.804Z,14.91
2023-05-20T01:45:04.953Z,14.84
2023-05-20T01:50:07.576Z,14.78
2023-05-20T01:55:10.447Z,14.72
2023-05-20T02:00:12.715Z,14.62
2023-05-20T02:05:19.967Z,14.53
2023-05-20T02:10:21.913Z,14.47
2023-05-20T02:15:23.826Z,14.47
2023-05-20T02:20:25.714Z,14.48
2023-05-20T02:25:27.597Z,14.48
2023-05-20T02:30:29.484Z,14.48
2023-05-20T02:35:32.130Z,14.47
2023-05-20T02:40:34.413Z,14.46
2023-05-20T02:45:36.549Z,14.38
2023-05-20T02:50:40.284Z,14.35
2023-05-20T02:55:42.483Z,14.30
2023-05-20T03:00:44.626Z,14.25
2023-05-20T03:05:46.715Z,14.25
2023-05-20T03:10:49.027Z,14.26
2023-05-20T03:15:51.464Z,14.29
2023-05-20T03:20:53.734Z,14.32
2023-05-20T03:25:55.855Z,14.35
2023-05-20T03:30:57.785Z,14.36
2023-05-20T03:35:59.820Z,14.35
2023-05-20T03:41:01.771Z,14.37
2023-05-20T03:46:03.866Z,14.42
2023-05-20T03:51:05.963Z,14.43
2023-05-20T03:56:08.523Z,14.47
2023-05-20T04:01:14.379Z,14.48
2023-05-20T04:06:16.538Z,14.48
2023-05-20T04:11:18.550Z,14.50
2023-05-20T04:16:21.134Z,14.53
2023-05-20T04:21:23.125Z,14.56
2023-05-20T04:26:25.260Z,14.63
2023-05-20T04:31:27.249Z,14.57
2023-05-20T04:36:30.398Z,14.57
2023-05-20T04:41:32.981Z,14.60
2023-05-20T04:46:35.171Z,14.59
2023-05-20T04:51:37.303Z,14.95
2023-05-20T04:56:40.256Z,14.81
2023-05-20T05:01:42.287Z,14.75
2023-05-20T05:06:44.461Z,14.81
2023-05-20T05:11:46.471Z,14.78
2023-05-20T05:16:48.441Z,14.84
2023-05-20T05:21:51.487Z,15.05
2023-05-20T05:26:56.635Z,15.06
2023-05-20T05:31:59.469Z,14.85
2023-05-20T05:37:01.557Z,14.87
2023-05-20T05:42:04.732Z,14.94
2023-05-20T05:47:07.454Z,15.05
2023-05-20T05:52:10.012Z,15.23
2023-05-20T05:57:12.350Z,15.36
2023-05-20T06:02:15.288Z,15.29
2023-05-20T06:07:17.329Z,15.36
2023-05-20T06:12:19.296Z,15.62
2023-05-20T06:17:21.425Z,15.59
2023-05-20T06:22:24.848Z,15.50
2023-05-20T06:27:27.750Z,15.41
2023-05-20T06:32:29.932Z,15.42
2023-05-20T06:37:32.876Z,15.53
2023-05-20T06:42:34.929Z,15.56
2023-05-20T06:47:41.153Z,15.89
2023-05-20T06:52:44.053Z,15.77
2023-05-20T06:57:47.510Z,16.18
2023-05-20T07:02:52.041Z,15.88
2023-05-20T07:07:55.534Z,15.93
2023-05-20T07:12:57.856Z,16.02
2023-05-20T07:18:01.303Z,16.19
2023-05-20T07:23:04.310Z,16.25
2023-05-20T07:28:16.108Z,16.42
2023-05-20T07:33:19.424Z,16.63
2023-05-20T07:38:22.199Z,16.80
2023-05-20T07:43:31.346Z,16.97
2023-05-20T07:48:34.039Z,17.21
2023-05-20T07:53:36.331Z,17.57
2023-05-20T07:58:41.022Z,17.88
2023-05-20T08:03:43.233Z,18.22
2023-05-20T08:08:49.243Z,18.61
2023-05-20T08:13:58.151Z,18.55
2023-05-20T08:19:03.069Z,18.63
2023-05-20T08:24:05.841Z,18.63
2023-05-20T08:29:08.533Z,18.75
2023-05-20T08:34:10.812Z,18.76
2023-05-20T08:39:13.647Z,18.70
2023-05-20T08:44:18.136Z,19.16
2023-05-20T08:49:20.649Z,19.61
2023-05-20T08:54:24.407Z,19.82
2023-05-20T08:59:27.595Z,20.00
2023-05-20T09:04:29.536Z,20.17
2023-05-20T09:09:35.778Z,20.57
2023-05-20T09:14:37.636Z,20.72
2023-05-20T09:19:39.684Z,20.54
2023-05-20T09:24:41.708Z,20.72
2023-05-20T09:29:43.922Z,20.79
2023-05-20T09:34:47.612Z,20.85
2023-05-20T09:40:00.112Z,21.04
2023-05-20T09:45:04.362Z,21.10
2023-05-20T09:50:09.341Z,21.25
2023-05-20T09:55:11.221Z,21.37
2023-05-20T10:00:15.343Z,21.44
2023-05-20T10:05:27.554Z,21.72
2023-05-20T10:10:48.627Z,21.88
2023-05-20T10:15:59.528Z,21.79
2023-05-20T10:21:01.517Z,21.82
2023-05-20T10:26:07.002Z,21.86
2023-05-20T10:31:18.297Z,21.87
2023-05-20T10:36:26.373Z,22.08
2023-05-20T10:41:29.467Z,22.27
2023-05-20T10:46:40.092Z,22.21
2023-05-20T10:51:54.511Z,22.11
2023-05-20T10:56:57.367Z,22.17
2023-05-20T11:02:01.545Z,22.31
2023-05-20T11:07:03.515Z,22.52
2023-05-20T11:12:06.464Z,22.56
2023-05-20T11:17:08.585Z,22.77
2023-05-20T11:22:10.950Z,22.85
2023-05-20T11:27:12.860Z,23.09
2023-05-20T11:32:14.845Z,23.47
2023-05-20T11:37:17.979Z,23.30
2023-05-20T11:42:19.897Z,23.23
2023-05-20T11:47:27.773Z,23.23
2023-05-20T11:52:30.051Z,23.29
2023-05-20T11:57:31.903Z,23.33
2023-05-20T12:02:33.852Z,23.08
2023-05-20T12:07:36.869Z,22.80
2023-05-20T12:12:38.741Z,23.01
2023-05-20T12:17:51.890Z,23.10
2023-05-20T12:22:53.872Z,23.25
2023-05-20T12:27:56.565Z,23.59
2023-05-20T12:32:58.493Z,23.65
2023-05-20T12:38:01.281Z,23.49
2023-05-20T12:43:04.693Z,23.35
2023-05-20T12:48:08.054Z,23.33
2023-05-20T12:53:10.274Z,23.39
2023-05-20T12:58:12.217Z,23.51
2023-05-20T13:03:14.404Z,23.61
2023-05-20T13:08:16.559Z,23.86
2023-05-20T13:13:27.923Z,23.81
2023-05-20T13:18:32.061Z,23.76
2023-05-20T13:23:34.547Z,23.83
2023-05-20T13:28:37.463Z,23.80
2023-05-20T13:33:40.009Z,23.69
2023-05-20T13:38:41.929Z,23.65
2023-05-20T13:43:43.863Z,23.57
2023-05-20T13:48:45.725Z,23.51
2023-05-20T13:53:50.541Z,23.53
2023-05-20T13:58:52.988Z,23.54
2023-05-20T14:03:55.275Z,23.54
2023-05-20T14:08:57.722Z,23.41
2023-05-20T14:14:01.145Z,23.33
2023-05-20T14:19:03.628Z,23.26
2023-05-20T14:24:06.266Z,23.25
2023-05-20T14:29:08.680Z,23.28
2023-05-20T14:34:11.617Z,23.26
2023-05-20T14:39:13.808Z,23.23
2023-05-20T14:44:16.370Z,23.20
2023-05-20T14:49:18.305Z,23.17
2023-05-20T14:54:25.066Z,23.16
2023-05-20T14:59:26.967Z,23.15
2023-05-20T15:04:28.861Z,23.17
2023-05-20T15:09:31.051Z,23.23
2023-05-20T15:14:33.122Z,23.31
2023-05-20T15:19:36.969Z,23.35
2023-05-20T15:24:40.598Z,23.36
2023-05-20T15:29:43.222Z,23.36
2023-05-20T15:34:45.145Z,23.33
2023-05-20T15:39:47.132Z,23.25
2023-05-20T15:44:49.039Z,23.23
2023-05-20T15:49:51.024Z,23.21
2023-05-20T15:54:53.738Z,23.16
2023-05-20T15:59:57.439Z,23.14
2023-05-20T16:04:59.355Z,23.07
2023-05-20T16:10:01.563Z,23.06
2023-05-20T16:15:04.486Z,23.14
2023-05-20T16:20:07.238Z,23.15
2023-05-20T16:25:11.454Z,23.13
2023-05-20T16:30:14.322Z,23.06
2023-05-20T16:35:16.713Z,23.05
2023-05-20T16:40:18.611Z,22.99
2023-05-20T16:45:21.034Z,22.90
2023-05-20T16:50:23.430Z,22.90
2023-05-20T16:55:25.371Z,22.89
2023-05-20T17:00:27.323Z,22.90
2023-05-20T17:05:29.214Z,22.90
2023-05-20T17:10:31.448Z,22.89
2023-05-20T17:15:37.081Z,22.88
2023-05-20T17:20:39.064Z,22.85
2023-05-20T17:25:41.307Z,22.79
2023-05-20T17:30:43.221Z,22.72
2023-05-20T17:35:45.097Z,22.59
2023-05-20T17:40:47.068Z,22.47
2023-05-20T17:45:49.261Z,22.37
2023-05-20T17:50:51.199Z,22.25
2023-05-20T17:55:53.108Z,22.17
2023-05-20T18:00:55.097Z,22.07
2023-05-20T18:05:56.957Z,22.03
2023-05-20T18:10:59.967Z,21.89
2023-05-20T18:16:02.492Z,21.82
2023-05-20T18:21:06.733Z,21.68
2023-05-20T18:26:09.503Z,21.47
2023-05-20T18:31:12.069Z,21.33
2023-05-20T18:36:14.025Z,21.23
2023-05-20T18:41:16.492Z,21.17
2023-05-20T18:46:19.146Z,21.10
2023-05-20T18:51:21.251Z,20.99
2023-05-20T18:56:23.754Z,20.93
2023-05-20T19:01:26.230Z,20.87
2023-05-20T19:06:28.210Z,20.80
2023-05-20T19:11:31.317Z,20.69
2023-05-20T19:16:33.483Z,20.64
2023-05-20T19:21:35.847Z,20.56
2023-05-20T19:26:37.969Z,20.44
2023-05-20T19:31:43.253Z,20.34
2023-05-20T19:36:45.666Z,20.27
2023-05-20T19:41:49.018Z,20.19
2023-05-20T19:46:51.556Z,20.09
2023-05-20T19:51:53.538Z,20.07
2023-05-20T19:56:55.667Z,20.04
2023-05-20T20:02:02.883Z,20.02
2023-05-20T20:07:04.987Z,20.00
2023-05-20T20:12:07.676Z,19.93
2023-05-20T20:17:13.591Z,19.76
2023-05-20T20:22:16.795Z,19.59
2023-05-20T20:27:19.361Z,19.48
2023-05-20T20:32:21.653Z,19.45
2023-05-20T20:37:23.607Z,19.43
2023-05-20T20:42:26.615Z,19.31
2023-05-20T20:47:29.422Z,19.19
2023-05-20T20:52:33.646Z,19.08
2023-05-20T20:57:37.205Z,18.96
2023-05-20T21:02:40.022Z,18.92
2023-05-20T21:07:42.752Z,18.95
2023-05-20T21:12:44.723Z,18.93
2023-05-20T21:17:46.641Z,18.86
2023-05-20T21:22:48.576Z,18.85
2023-05-20T21:27:50.672Z,18.79
2023-05-20T21:32:52.553Z,18.66
2023-05-20T21:37:54.553Z,18.57
2023-05-20T21:42:56.453Z,18.43
2023-05-20T21:47:58.520Z,18.27
2023-05-20T21:53:00.391Z,18.07
2023-05-20T21:58:02.353Z,17.98
2023-05-20T22:03:04.312Z,17.89
2023-05-20T22:08:06.373Z,17.84
2023-05-20T22:13:11.116Z,17.84
2023-05-20T22:18:14.965Z,17.89
2023-05-20T22:23:16.955Z,17.90
2023-05-20T22:28:18.917Z,17.86
2023-05-20T22:33:23.000Z,17.84
2023-05-20T22:38:24.936Z,17.79
2023-05-20T22:43:26.780Z,17.76
2023-05-20T22:48:29.812Z,17.68
2023-05-20T22:53:31.653Z,17.65
2023-05-20T22:58:35.748Z,17.62
2023-05-20T23:03:38.155Z,17.62
2023-05-20T23:08:43.022Z,17.58
2023-05-20T23:13:44.906Z,17.49
2023-05-20T23:18:47.708Z,17.41
2023-05-20T23:23:49.646Z,17.38
2023-05-20T23:28:51.613Z,17.34
2023-05-20T23:33:54.273Z,17.35
2023-05-20T23:38:56.774Z,17.31
2023-05-20T23:43:58.645Z,17.19
2023-05-20T23:49:02.061Z,17.17
2023-05-20T23:54:04.127Z,17.12
2023-05-20T23:59:06.026Z,17.04
